sensor_id;sensor_type;location;lat;lon;timestamp;pressure;altitude;pressure_sealevel;temperature
7882;BMP180;3986;41.884;23.466;2023-01-25T00:01:58;92749.00;;;4.70
7882;BMP180;3986;41.884;23.466;2023-01-25T00:04:25;92746.00;;;4.80
7882;BMP180;3986;41.884;23.466;2023-01-25T00:06:54;92743.00;;;4.80
7882;BMP180;3986;41.884;23.466;2023-01-25T00:09:22;92745.00;;;4.80
7882;BMP180;3986;41.884;23.466;2023-01-25T00:11:49;92745.00;;;4.90
7882;BMP180;3986;41.884;23.466;2023-01-25T00:14:18;92746.00;;;4.90
7882;BMP180;3986;41.884;23.466;2023-01-25T00:16:45;92759.00;;;4.80
7882;BMP180;3986;41.884;23.466;2023-01-25T00:19:11;92758.00;;;4.70
7882;BMP180;3986;41.884;23.466;2023-01-25T00:21:38;92759.00;;;4.70
7882;BMP180;3986;41.884;23.466;2023-01-25T00:24:07;92758.00;;;4.80
7882;BMP180;3986;41.884;23.466;2023-01-25T00:26:36;92753.00;;;4.90
7882;BMP180;3986;41.884;23.466;2023-01-25T00:29:03;92763.00;;;4.70
7882;BMP180;3986;41.884;23.466;2023-01-25T00:31:39;92764.00;;;4.70
7882;BMP180;3986;41.884;23.466;2023-01-25T00:34:36;92755.00;;;4.80
7882;BMP180;3986;41.884;23.466;2023-01-25T00:37:12;92762.00;;;4.30
7882;BMP180;3986;41.884;23.466;2023-01-25T00:39:41;92762.00;;;4.80
7882;BMP180;3986;41.884;23.466;2023-01-25T00:42:09;92763.00;;;4.60
7882;BMP180;3986;41.884;23.466;2023-01-25T00:44:36;92775.00;;;4.80
7882;BMP180;3986;41.884;23.466;2023-01-25T00:47:02;92769.00;;;4.80
7882;BMP180;3986;41.884;23.466;2023-01-25T00:49:30;92758.00;;;4.80
7882;BMP180;3986;41.884;23.466;2023-01-25T00:51:58;92751.00;;;4.80
7882;BMP180;3986;41.884;23.466;2023-01-25T00:54:25;92766.00;;;4.80
7882;BMP180;3986;41.884;23.466;2023-01-25T00:56:53;92752.00;;;4.70
7882;BMP180;3986;41.884;23.466;2023-01-25T00:59:21;92763.00;;;4.80
7882;BMP180;3986;41.884;23.466;2023-01-25T01:01:48;92752.00;;;4.60
7882;BMP180;3986;41.884;23.466;2023-01-25T01:04:15;92757.00;;;4.70
7882;BMP180;3986;41.884;23.466;2023-01-25T01:06:42;92748.00;;;4.70
7882;BMP180;3986;41.884;23.466;2023-01-25T01:09:12;92745.00;;;4.60
7882;BMP180;3986;41.884;23.466;2023-01-25T01:11:39;92735.00;;;4.60
7882;BMP180;3986;41.884;23.466;2023-01-25T01:14:07;92727.00;;;4.60
7882;BMP180;3986;41.884;23.466;2023-01-25T01:16:34;92734.00;;;4.20
7882;BMP180;3986;41.884;23.466;2023-01-25T01:19:01;92737.00;;;4.30
7882;BMP180;3986;41.884;23.466;2023-01-25T01:21:28;92740.00;;;4.20
7882;BMP180;3986;41.884;23.466;2023-01-25T01:23:55;92736.00;;;4.20
7882;BMP180;3986;41.884;23.466;2023-01-25T01:26:22;92732.00;;;4.20
7882;BMP180;3986;41.884;23.466;2023-01-25T01:28:49;92729.00;;;4.30
7882;BMP180;3986;41.884;23.466;2023-01-25T01:31:19;92736.00;;;4.10
7882;BMP180;3986;41.884;23.466;2023-01-25T01:33:48;92739.00;;;4.00
7882;BMP180;3986;41.884;23.466;2023-01-25T01:36:16;92731.00;;;4.10
7882;BMP180;3986;41.884;23.466;2023-01-25T01:38:44;92594.00;;;4.10
7882;BMP180;3986;41.884;23.466;2023-01-25T01:41:12;92739.00;;;3.70
7882;BMP180;3986;41.884;23.466;2023-01-25T01:43:39;92735.00;;;4.40
7882;BMP180;3986;41.884;23.466;2023-01-25T01:46:09;92739.00;;;4.40
7882;BMP180;3986;41.884;23.466;2023-01-25T01:48:41;92722.00;;;4.10
7882;BMP180;3986;41.884;23.466;2023-01-25T01:51:14;92741.00;;;4.10
7882;BMP180;3986;41.884;23.466;2023-01-25T01:53:44;92733.00;;;4.20
7882;BMP180;3986;41.884;23.466;2023-01-25T01:56:14;92731.00;;;4.20
7882;BMP180;3986;41.884;23.466;2023-01-25T01:58:43;92734.00;;;4.20
7882;BMP180;3986;41.884;23.466;2023-01-25T02:01:10;92721.00;;;4.30
7882;BMP180;3986;41.884;23.466;2023-01-25T02:03:39;92732.00;;;4.40
7882;BMP180;3986;41.884;23.466;2023-01-25T02:06:11;92726.00;;;4.40
7882;BMP180;3986;41.884;23.466;2023-01-25T02:08:39;92734.00;;;4.20
7882;BMP180;3986;41.884;23.466;2023-01-25T02:11:08;92729.00;;;4.40
7882;BMP180;3986;41.884;23.466;2023-01-25T02:13:36;92739.00;;;4.50
7882;BMP180;3986;41.884;23.466;2023-01-25T02:16:03;92731.00;;;4.40
7882;BMP180;3986;41.884;23.466;2023-01-25T02:18:31;92729.00;;;4.50
7882;BMP180;3986;41.884;23.466;2023-01-25T02:21:00;92728.00;;;4.50
7882;BMP180;3986;41.884;23.466;2023-01-25T02:23:31;92725.00;;;4.50
7882;BMP180;3986;41.884;23.466;2023-01-25T02:26:04;92731.00;;;4.20
7882;BMP180;3986;41.884;23.466;2023-01-25T02:28:34;92733.00;;;3.90
7882;BMP180;3986;41.884;23.466;2023-01-25T02:31:01;92729.00;;;3.90
7882;BMP180;3986;41.884;23.466;2023-01-25T02:33:28;92729.00;;;4.00
7882;BMP180;3986;41.884;23.466;2023-01-25T02:35:59;92728.00;;;4.40
7882;BMP180;3986;41.884;23.466;2023-01-25T02:38:27;92722.00;;;4.50
7882;BMP180;3986;41.884;23.466;2023-01-25T02:41:01;92716.00;;;4.50
7882;BMP180;3986;41.884;23.466;2023-01-25T02:43:31;92720.00;;;4.40
7882;BMP180;3986;41.884;23.466;2023-01-25T02:46:02;92724.00;;;3.80
7882;BMP180;3986;41.884;23.466;2023-01-25T02:48:30;92730.00;;;3.90
7882;BMP180;3986;41.884;23.466;2023-01-25T02:50:57;92716.00;;;3.90
7882;BMP180;3986;41.884;23.466;2023-01-25T02:53:24;92721.00;;;4.00
7882;BMP180;3986;41.884;23.466;2023-01-25T02:55:51;92723.00;;;4.20
7882;BMP180;3986;41.884;23.466;2023-01-25T02:58:18;92723.00;;;4.30
7882;BMP180;3986;41.884;23.466;2023-01-25T03:00:46;92733.00;;;4.40
7882;BMP180;3986;41.884;23.466;2023-01-25T03:03:13;92730.00;;;4.30
7882;BMP180;3986;41.884;23.466;2023-01-25T03:05:40;92733.00;;;4.40
7882;BMP180;3986;41.884;23.466;2023-01-25T03:08:07;92727.00;;;4.50
7882;BMP180;3986;41.884;23.466;2023-01-25T03:10:33;92727.00;;;4.60
7882;BMP180;3986;41.884;23.466;2023-01-25T03:13:00;92718.00;;;4.60
7882;BMP180;3986;41.884;23.466;2023-01-25T03:15:27;92736.00;;;4.50
7882;BMP180;3986;41.884;23.466;2023-01-25T03:17:56;92718.00;;;4.10
7882;BMP180;3986;41.884;23.466;2023-01-25T03:20:23;92724.00;;;4.50
7882;BMP180;3986;41.884;23.466;2023-01-25T03:22:50;92715.00;;;4.50
7882;BMP180;3986;41.884;23.466;2023-01-25T03:25:16;92720.00;;;4.10
7882;BMP180;3986;41.884;23.466;2023-01-25T03:27:43;92719.00;;;4.20
7882;BMP180;3986;41.884;23.466;2023-01-25T03:30:11;92720.00;;;4.40
7882;BMP180;3986;41.884;23.466;2023-01-25T03:32:37;92717.00;;;4.40
7882;BMP180;3986;41.884;23.466;2023-01-25T03:35:06;92726.00;;;4.60
7882;BMP180;3986;41.884;23.466;2023-01-25T03:37:33;92721.00;;;4.60
7882;BMP180;3986;41.884;23.466;2023-01-25T03:40:00;92719.00;;;4.60
7882;BMP180;3986;41.884;23.466;2023-01-25T03:42:27;92715.00;;;4.50
7882;BMP180;3986;41.884;23.466;2023-01-25T03:44:54;92724.00;;;4.50
7882;BMP180;3986;41.884;23.466;2023-01-25T03:47:20;92719.00;;;4.50
7882;BMP180;3986;41.884;23.466;2023-01-25T03:49:47;92710.00;;;4.60
7882;BMP180;3986;41.884;23.466;2023-01-25T03:52:15;92719.00;;;4.30
7882;BMP180;3986;41.884;23.466;2023-01-25T03:54:42;92715.00;;;4.40
7882;BMP180;3986;41.884;23.466;2023-01-25T03:57:09;92712.00;;;4.30
7882;BMP180;3986;41.884;23.466;2023-01-25T03:59:37;92715.00;;;4.30
7882;BMP180;3986;41.884;23.466;2023-01-25T04:02:04;92566.00;;;4.40
7882;BMP180;3986;41.884;23.466;2023-01-25T04:04:30;92714.00;;;4.50
7882;BMP180;3986;41.884;23.466;2023-01-25T04:06:57;92720.00;;;4.30
7882;BMP180;3986;41.884;23.466;2023-01-25T04:09:25;92719.00;;;4.10
7882;BMP180;3986;41.884;23.466;2023-01-25T04:11:52;92719.00;;;4.00
7882;BMP180;3986;41.884;23.466;2023-01-25T04:14:19;92718.00;;;4.10
7882;BMP180;3986;41.884;23.466;2023-01-25T04:16:45;92725.00;;;4.30
7882;BMP180;3986;41.884;23.466;2023-01-25T04:19:12;92724.00;;;4.30
7882;BMP180;3986;41.884;23.466;2023-01-25T04:21:39;92717.00;;;4.30
7882;BMP180;3986;41.884;23.466;2023-01-25T04:24:06;92726.00;;;4.20
7882;BMP180;3986;41.884;23.466;2023-01-25T04:26:34;92738.00;;;3.80
7882;BMP180;3986;41.884;23.466;2023-01-25T04:29:01;92733.00;;;3.80
7882;BMP180;3986;41.884;23.466;2023-01-25T04:31:28;92740.00;;;4.00
7882;BMP180;3986;41.884;23.466;2023-01-25T04:33:55;92733.00;;;4.10
7882;BMP180;3986;41.884;23.466;2023-01-25T04:36:22;92746.00;;;4.30
7882;BMP180;3986;41.884;23.466;2023-01-25T04:38:48;92736.00;;;4.30
7882;BMP180;3986;41.884;23.466;2023-01-25T04:41:15;92743.00;;;4.00
7882;BMP180;3986;41.884;23.466;2023-01-25T04:43:43;92740.00;;;4.10
7882;BMP180;3986;41.884;23.466;2023-01-25T04:46:10;92741.00;;;4.20
7882;BMP180;3986;41.884;23.466;2023-01-25T04:48:37;92736.00;;;4.40
7882;BMP180;3986;41.884;23.466;2023-01-25T04:51:04;92732.00;;;4.40
7882;BMP180;3986;41.884;23.466;2023-01-25T04:53:33;92734.00;;;4.50
7882;BMP180;3986;41.884;23.466;2023-01-25T04:56:00;92742.00;;;4.50
7882;BMP180;3986;41.884;23.466;2023-01-25T04:58:27;92739.00;;;4.60
7882;BMP180;3986;41.884;23.466;2023-01-25T05:00:59;92737.00;;;4.40
7882;BMP180;3986;41.884;23.466;2023-01-25T05:03:25;92749.00;;;4.30
7882;BMP180;3986;41.884;23.466;2023-01-25T05:05:52;92742.00;;;4.00
7882;BMP180;3986;41.884;23.466;2023-01-25T05:08:19;92744.00;;;4.10
7882;BMP180;3986;41.884;23.466;2023-01-25T05:10:46;92744.00;;;4.30
7882;BMP180;3986;41.884;23.466;2023-01-25T05:13:13;92745.00;;;4.40
7882;BMP180;3986;41.884;23.466;2023-01-25T05:15:40;92742.00;;;4.30
7882;BMP180;3986;41.884;23.466;2023-01-25T05:18:08;92743.00;;;4.40
7882;BMP180;3986;41.884;23.466;2023-01-25T05:20:35;92741.00;;;4.50
7882;BMP180;3986;41.884;23.466;2023-01-25T05:23:02;92747.00;;;4.30
7882;BMP180;3986;41.884;23.466;2023-01-25T05:25:28;92740.00;;;4.30
7882;BMP180;3986;41.884;23.466;2023-01-25T05:28:12;92743.00;;;4.30
7882;BMP180;3986;41.884;23.466;2023-01-25T05:30:39;92738.00;;;4.40
7882;BMP180;3986;41.884;23.466;2023-01-25T05:33:07;92742.00;;;4.50
7882;BMP180;3986;41.884;23.466;2023-01-25T05:35:34;92735.00;;;4.50
7882;BMP180;3986;41.884;23.466;2023-01-25T05:38:01;92737.00;;;4.50
7882;BMP180;3986;41.884;23.466;2023-01-25T05:40:28;92733.00;;;4.40
7882;BMP180;3986;41.884;23.466;2023-01-25T05:42:55;92710.00;;;4.40
7882;BMP180;3986;41.884;23.466;2023-01-25T05:45:22;92743.00;;;4.40
7882;BMP180;3986;41.884;23.466;2023-01-25T05:47:51;92746.00;;;4.50
7882;BMP180;3986;41.884;23.466;2023-01-25T05:50:20;92741.00;;;4.40
7882;BMP180;3986;41.884;23.466;2023-01-25T05:52:47;92740.00;;;4.40
7882;BMP180;3986;41.884;23.466;2023-01-25T05:55:14;92742.00;;;4.40
7882;BMP180;3986;41.884;23.466;2023-01-25T05:57:41;92710.00;;;4.40
7882;BMP180;3986;41.884;23.466;2023-01-25T06:00:09;92745.00;;;4.10
7882;BMP180;3986;41.884;23.466;2023-01-25T06:02:36;92740.00;;;4.20
7882;BMP180;3986;41.884;23.466;2023-01-25T06:05:03;92741.00;;;4.20
7882;BMP180;3986;41.884;23.466;2023-01-25T06:07:33;92735.00;;;3.90
7882;BMP180;3986;41.884;23.466;2023-01-25T06:10:01;92737.00;;;4.00
7882;BMP180;3986;41.884;23.466;2023-01-25T06:12:27;92738.00;;;4.20
7882;BMP180;3986;41.884;23.466;2023-01-25T06:14:54;92740.00;;;4.40
7882;BMP180;3986;41.884;23.466;2023-01-25T06:17:21;92741.00;;;4.40
7882;BMP180;3986;41.884;23.466;2023-01-25T06:19:48;92735.00;;;4.40
7882;BMP180;3986;41.884;23.466;2023-01-25T06:22:15;92730.00;;;4.50
7882;BMP180;3986;41.884;23.466;2023-01-25T06:24:43;92735.00;;;4.50
7882;BMP180;3986;41.884;23.466;2023-01-25T06:27:09;92738.00;;;4.30
7882;BMP180;3986;41.884;23.466;2023-01-25T06:29:37;92741.00;;;4.50
7882;BMP180;3986;41.884;23.466;2023-01-25T06:32:03;92743.00;;;4.50
7882;BMP180;3986;41.884;23.466;2023-01-25T06:34:30;92736.00;;;4.70
7882;BMP180;3986;41.884;23.466;2023-01-25T06:36:57;92739.00;;;4.70
7882;BMP180;3986;41.884;23.466;2023-01-25T06:39:24;92746.00;;;4.70
7882;BMP180;3986;41.884;23.466;2023-01-25T06:41:52;92733.00;;;4.40
7882;BMP180;3986;41.884;23.466;2023-01-25T06:44:19;92747.00;;;4.40
7882;BMP180;3986;41.884;23.466;2023-01-25T06:46:46;92739.00;;;4.60
7882;BMP180;3986;41.884;23.466;2023-01-25T06:49:13;92747.00;;;4.80
7882;BMP180;3986;41.884;23.466;2023-01-25T06:51:39;92741.00;;;4.90
7882;BMP180;3986;41.884;23.466;2023-01-25T06:54:06;92739.00;;;4.90
7882;BMP180;3986;41.884;23.466;2023-01-25T06:56:33;92740.00;;;5.00
7882;BMP180;3986;41.884;23.466;2023-01-25T06:59:01;92749.00;;;5.00
7882;BMP180;3986;41.884;23.466;2023-01-25T07:01:28;92750.00;;;5.10
7882;BMP180;3986;41.884;23.466;2023-01-25T07:03:57;92755.00;;;5.20
7882;BMP180;3986;41.884;23.466;2023-01-25T07:06:24;92702.00;;;4.90
7882;BMP180;3986;41.884;23.466;2023-01-25T07:08:51;92757.00;;;4.80
7882;BMP180;3986;41.884;23.466;2023-01-25T07:11:18;92721.00;;;4.60
7882;BMP180;3986;41.884;23.466;2023-01-25T07:13:46;92754.00;;;4.80
7882;BMP180;3986;41.884;23.466;2023-01-25T07:16:17;92765.00;;;4.80
7882;BMP180;3986;41.884;23.466;2023-01-25T07:18:44;92767.00;;;5.00
7882;BMP180;3986;41.884;23.466;2023-01-25T07:21:12;92765.00;;;5.00
7882;BMP180;3986;41.884;23.466;2023-01-25T07:23:40;92768.00;;;5.30
7882;BMP180;3986;41.884;23.466;2023-01-25T07:26:13;92765.00;;;5.40
7882;BMP180;3986;41.884;23.466;2023-01-25T07:28:41;92764.00;;;5.20
7882;BMP180;3986;41.884;23.466;2023-01-25T07:31:08;92755.00;;;5.50
7882;BMP180;3986;41.884;23.466;2023-01-25T07:33:36;92749.00;;;5.70
7882;BMP180;3986;41.884;23.466;2023-01-25T07:36:05;92752.00;;;5.80
7882;BMP180;3986;41.884;23.466;2023-01-25T07:38:33;92752.00;;;5.90
7882;BMP180;3986;41.884;23.466;2023-01-25T07:41:00;92751.00;;;5.60
7882;BMP180;3986;41.884;23.466;2023-01-25T07:43:27;92754.00;;;5.00
7882;BMP180;3986;41.884;23.466;2023-01-25T07:45:59;92757.00;;;5.70
7882;BMP180;3986;41.884;23.466;2023-01-25T07:48:26;92747.00;;;5.90
7882;BMP180;3986;41.884;23.466;2023-01-25T07:50:58;92748.00;;;6.10
7882;BMP180;3986;41.884;23.466;2023-01-25T07:53:41;92756.00;;;6.10
7882;BMP180;3986;41.884;23.466;2023-01-25T07:56:10;92717.00;;;6.20
7882;BMP180;3986;41.884;23.466;2023-01-25T07:58:37;92738.00;;;6.30
7882;BMP180;3986;41.884;23.466;2023-01-25T08:01:05;92747.00;;;6.30
7882;BMP180;3986;41.884;23.466;2023-01-25T08:03:32;92733.00;;;6.50
7882;BMP180;3986;41.884;23.466;2023-01-25T08:06:00;92740.00;;;6.60
7882;BMP180;3986;41.884;23.466;2023-01-25T08:08:29;92715.00;;;6.60
7882;BMP180;3986;41.884;23.466;2023-01-25T08:10:59;92736.00;;;6.50
7882;BMP180;3986;41.884;23.466;2023-01-25T08:13:25;92743.00;;;6.50
7882;BMP180;3986;41.884;23.466;2023-01-25T08:15:53;92734.00;;;6.60
7882;BMP180;3986;41.884;23.466;2023-01-25T08:18:20;92735.00;;;6.70
7882;BMP180;3986;41.884;23.466;2023-01-25T08:20:47;92745.00;;;6.60
7882;BMP180;3986;41.884;23.466;2023-01-25T08:23:15;92740.00;;;6.90
7882;BMP180;3986;41.884;23.466;2023-01-25T08:25:42;92607.00;;;6.90
7882;BMP180;3986;41.884;23.466;2023-01-25T08:28:09;92745.00;;;6.80
7882;BMP180;3986;41.884;23.466;2023-01-25T08:30:35;92739.00;;;6.90
7882;BMP180;3986;41.884;23.466;2023-01-25T08:33:02;92745.00;;;6.80
7882;BMP180;3986;41.884;23.466;2023-01-25T08:35:29;92747.00;;;6.90
7882;BMP180;3986;41.884;23.466;2023-01-25T08:37:56;92750.00;;;7.10
7882;BMP180;3986;41.884;23.466;2023-01-25T08:40:24;92749.00;;;7.30
7882;BMP180;3986;41.884;23.466;2023-01-25T08:42:51;92735.00;;;7.50
7882;BMP180;3986;41.884;23.466;2023-01-25T08:45:17;92739.00;;;6.80
7882;BMP180;3986;41.884;23.466;2023-01-25T08:47:44;92734.00;;;7.20
7882;BMP180;3986;41.884;23.466;2023-01-25T08:50:11;92725.00;;;7.30
7882;BMP180;3986;41.884;23.466;2023-01-25T08:52:38;92728.00;;;7.60
7882;BMP180;3986;41.884;23.466;2023-01-25T08:55:05;92721.00;;;7.20
7882;BMP180;3986;41.884;23.466;2023-01-25T08:57:33;92716.00;;;7.30
7882;BMP180;3986;41.884;23.466;2023-01-25T09:00:01;92725.00;;;7.30
7882;BMP180;3986;41.884;23.466;2023-01-25T09:02:28;92724.00;;;7.50
7882;BMP180;3986;41.884;23.466;2023-01-25T09:04:54;92719.00;;;7.50
7882;BMP180;3986;41.884;23.466;2023-01-25T09:07:21;92722.00;;;7.80
7882;BMP180;3986;41.884;23.466;2023-01-25T09:09:48;92718.00;;;8.00
7882;BMP180;3986;41.884;23.466;2023-01-25T09:12:15;92714.00;;;8.00
7882;BMP180;3986;41.884;23.466;2023-01-25T09:14:43;92526.00;;;7.40
7882;BMP180;3986;41.884;23.466;2023-01-25T09:17:10;92703.00;;;7.60
7882;BMP180;3986;41.884;23.466;2023-01-25T09:19:36;92707.00;;;7.70
7882;BMP180;3986;41.884;23.466;2023-01-25T09:22:03;92701.00;;;7.80
7882;BMP180;3986;41.884;23.466;2023-01-25T09:24:30;92699.00;;;7.60
7882;BMP180;3986;41.884;23.466;2023-01-25T09:26:59;92689.00;;;7.60
7882;BMP180;3986;41.884;23.466;2023-01-25T09:29:26;92689.00;;;7.80
7882;BMP180;3986;41.884;23.466;2023-01-25T09:31:54;92688.00;;;7.30
7882;BMP180;3986;41.884;23.466;2023-01-25T09:34:21;92692.00;;;7.20
7882;BMP180;3986;41.884;23.466;2023-01-25T09:36:47;92685.00;;;6.80
7882;BMP180;3986;41.884;23.466;2023-01-25T09:39:14;92678.00;;;6.70
7882;BMP180;3986;41.884;23.466;2023-01-25T09:41:58;92679.00;;;7.50
7882;BMP180;3986;41.884;23.466;2023-01-25T09:44:36;92670.00;;;7.40
7882;BMP180;3986;41.884;23.466;2023-01-25T09:47:12;92674.00;;;7.60
7882;BMP180;3986;41.884;23.466;2023-01-25T09:49:57;92667.00;;;7.40
7882;BMP180;3986;41.884;23.466;2023-01-25T09:52:40;92671.00;;;7.00
7882;BMP180;3986;41.884;23.466;2023-01-25T09:55:14;92668.00;;;6.90
7882;BMP180;3986;41.884;23.466;2023-01-25T09:57:43;92661.00;;;6.80
7882;BMP180;3986;41.884;23.466;2023-01-25T10:00:15;92670.00;;;7.10
7882;BMP180;3986;41.884;23.466;2023-01-25T10:02:48;92675.00;;;7.10
7882;BMP180;3986;41.884;23.466;2023-01-25T10:05:18;92665.00;;;7.30
7882;BMP180;3986;41.884;23.466;2023-01-25T10:07:54;92660.00;;;7.50
7882;BMP180;3986;41.884;23.466;2023-01-25T10:10:27;92659.00;;;7.60
7882;BMP180;3986;41.884;23.466;2023-01-25T10:12:55;92656.00;;;7.20
7882;BMP180;3986;41.884;23.466;2023-01-25T10:15:29;92653.00;;;6.80
7882;BMP180;3986;41.884;23.466;2023-01-25T10:18:03;92649.00;;;6.70
7882;BMP180;3986;41.884;23.466;2023-01-25T10:20:38;92632.00;;;6.70
7882;BMP180;3986;41.884;23.466;2023-01-25T10:23:48;92634.00;;;7.30
7882;BMP180;3986;41.884;23.466;2023-01-25T10:26:23;92631.00;;;7.30
7882;BMP180;3986;41.884;23.466;2023-01-25T10:28:55;92627.00;;;7.00
7882;BMP180;3986;41.884;23.466;2023-01-25T10:31:29;92632.00;;;7.10
7882;BMP180;3986;41.884;23.466;2023-01-25T10:34:01;92622.00;;;7.10
7882;BMP180;3986;41.884;23.466;2023-01-25T10:36:35;92621.00;;;7.40
7882;BMP180;3986;41.884;23.466;2023-01-25T10:39:03;92612.00;;;7.40
7882;BMP180;3986;41.884;23.466;2023-01-25T10:41:35;92626.00;;;7.20
7882;BMP180;3986;41.884;23.466;2023-01-25T10:44:05;92602.00;;;7.60
7882;BMP180;3986;41.884;23.466;2023-01-25T10:46:56;92605.00;;;7.70
7882;BMP180;3986;41.884;23.466;2023-01-25T10:49:40;92596.00;;;7.40
7882;BMP180;3986;41.884;23.466;2023-01-25T10:52:12;92560.00;;;7.50
7882;BMP180;3986;41.884;23.466;2023-01-25T10:54:40;92591.00;;;7.40
7882;BMP180;3986;41.884;23.466;2023-01-25T10:57:07;92581.00;;;7.20
7882;BMP180;3986;41.884;23.466;2023-01-25T10:59:37;92485.00;;;7.50
7882;BMP180;3986;41.884;23.466;2023-01-25T11:05:29;92577.00;;;7.20
7882;BMP180;3986;41.884;23.466;2023-01-25T11:07:57;92582.00;;;7.20
7882;BMP180;3986;41.884;23.466;2023-01-25T11:10:30;92577.00;;;7.00
7882;BMP180;3986;41.884;23.466;2023-01-25T11:13:21;92572.00;;;7.00
7882;BMP180;3986;41.884;23.466;2023-01-25T11:15:50;92559.00;;;6.80
7882;BMP180;3986;41.884;23.466;2023-01-25T11:18:19;92553.00;;;6.90
7882;BMP180;3986;41.884;23.466;2023-01-25T11:21:02;92564.00;;;6.80
7882;BMP180;3986;41.884;23.466;2023-01-25T11:23:29;92548.00;;;6.70
7882;BMP180;3986;41.884;23.466;2023-01-25T11:26:11;92543.00;;;6.80
7882;BMP180;3986;41.884;23.466;2023-01-25T11:28:38;92548.00;;;6.60
7882;BMP180;3986;41.884;23.466;2023-01-25T11:31:10;92536.00;;;6.60
7882;BMP180;3986;41.884;23.466;2023-01-25T11:33:38;92533.00;;;6.50
7882;BMP180;3986;41.884;23.466;2023-01-25T11:36:15;92523.00;;;6.80
7882;BMP180;3986;41.884;23.466;2023-01-25T11:38:56;92531.00;;;6.90
7882;BMP180;3986;41.884;23.466;2023-01-25T11:41:33;92524.00;;;6.50
7882;BMP180;3986;41.884;23.466;2023-01-25T11:44:26;92517.00;;;6.80
7882;BMP180;3986;41.884;23.466;2023-01-25T11:47:04;92508.00;;;6.70
7882;BMP180;3986;41.884;23.466;2023-01-25T11:49:42;92526.00;;;6.60
7882;BMP180;3986;41.884;23.466;2023-01-25T11:52:24;92498.00;;;6.80
7882;BMP180;3986;41.884;23.466;2023-01-25T11:55:01;92495.00;;;7.00
7882;BMP180;3986;41.884;23.466;2023-01-25T11:57:44;92501.00;;;7.10
7882;BMP180;3986;41.884;23.466;2023-01-25T12:00:41;92491.00;;;7.20
7882;BMP180;3986;41.884;23.466;2023-01-25T12:03:55;92482.00;;;7.10
7882;BMP180;3986;41.884;23.466;2023-01-25T12:06:32;92483.00;;;6.80
7882;BMP180;3986;41.884;23.466;2023-01-25T12:09:26;92481.00;;;6.90
7882;BMP180;3986;41.884;23.466;2023-01-25T12:12:11;92482.00;;;6.70
7882;BMP180;3986;41.884;23.466;2023-01-25T12:14:53;92485.00;;;6.50
7882;BMP180;3986;41.884;23.466;2023-01-25T12:17:32;92478.00;;;6.50
7882;BMP180;3986;41.884;23.466;2023-01-25T12:20:24;92475.00;;;6.50
7882;BMP180;3986;41.884;23.466;2023-01-25T12:23:10;92478.00;;;6.50
7882;BMP180;3986;41.884;23.466;2023-01-25T12:25:50;92470.00;;;6.50
7882;BMP180;3986;41.884;23.466;2023-01-25T12:28:24;92467.00;;;6.70
7882;BMP180;3986;41.884;23.466;2023-01-25T12:30:55;92467.00;;;6.60
7882;BMP180;3986;41.884;23.466;2023-01-25T12:33:27;92461.00;;;6.70
7882;BMP180;3986;41.884;23.466;2023-01-25T12:36:00;92469.00;;;6.40
7882;BMP180;3986;41.884;23.466;2023-01-25T12:38:38;92461.00;;;6.50
7882;BMP180;3986;41.884;23.466;2023-01-25T12:41:17;92459.00;;;6.70
7882;BMP180;3986;41.884;23.466;2023-01-25T12:43:49;92461.00;;;6.70
7882;BMP180;3986;41.884;23.466;2023-01-25T12:46:23;92458.00;;;6.50
7882;BMP180;3986;41.884;23.466;2023-01-25T12:48:53;92459.00;;;6.50
7882;BMP180;3986;41.884;23.466;2023-01-25T12:51:23;92457.00;;;6.10
7882;BMP180;3986;41.884;23.466;2023-01-25T12:53:54;92470.00;;;6.30
7882;BMP180;3986;41.884;23.466;2023-01-25T12:56:33;92472.00;;;6.20
7882;BMP180;3986;41.884;23.466;2023-01-25T12:59:12;92490.00;;;6.00
7882;BMP180;3986;41.884;23.466;2023-01-25T13:01:46;92477.00;;;5.90
7882;BMP180;3986;41.884;23.466;2023-01-25T13:04:24;92353.00;;;6.10
7882;BMP180;3986;41.884;23.466;2023-01-25T13:06:56;92488.00;;;6.00
7882;BMP180;3986;41.884;23.466;2023-01-25T13:09:29;92488.00;;;6.00
7882;BMP180;3986;41.884;23.466;2023-01-25T13:12:02;92492.00;;;6.20
7882;BMP180;3986;41.884;23.466;2023-01-25T13:14:30;92496.00;;;6.20
7882;BMP180;3986;41.884;23.466;2023-01-25T13:17:21;92494.00;;;5.90
7882;BMP180;3986;41.884;23.466;2023-01-25T13:19:49;92434.00;;;6.10
7882;BMP180;3986;41.884;23.466;2023-01-25T13:22:52;92490.00;;;6.20
7882;BMP180;3986;41.884;23.466;2023-01-25T13:25:24;92490.00;;;6.00
7882;BMP180;3986;41.884;23.466;2023-01-25T13:30:58;92480.00;;;5.80
7882;BMP180;3986;41.884;23.466;2023-01-25T13:33:34;92479.00;;;6.00
7882;BMP180;3986;41.884;23.466;2023-01-25T13:36:36;92478.00;;;5.80
7882;BMP180;3986;41.884;23.466;2023-01-25T13:42:16;92478.00;;;6.00
7882;BMP180;3986;41.884;23.466;2023-01-25T13:44:46;92489.00;;;6.00
7882;BMP180;3986;41.884;23.466;2023-01-25T13:47:15;92489.00;;;5.90
7882;BMP180;3986;41.884;23.466;2023-01-25T13:49:47;92454.00;;;5.80
7882;BMP180;3986;41.884;23.466;2023-01-25T13:52:18;92475.00;;;5.80
7882;BMP180;3986;41.884;23.466;2023-01-25T13:54:47;92475.00;;;5.80
7882;BMP180;3986;41.884;23.466;2023-01-25T13:57:19;92475.00;;;5.70
7882;BMP180;3986;41.884;23.466;2023-01-25T13:59:49;92306.00;;;5.70
7882;BMP180;3986;41.884;23.466;2023-01-25T14:02:23;92458.00;;;5.60
7882;BMP180;3986;41.884;23.466;2023-01-25T14:04:51;92444.00;;;5.60
7882;BMP180;3986;41.884;23.466;2023-01-25T14:07:19;92438.00;;;5.70
7882;BMP180;3986;41.884;23.466;2023-01-25T14:09:47;92333.00;;;5.70
7882;BMP180;3986;41.884;23.466;2023-01-25T14:12:27;92447.00;;;5.70
7882;BMP180;3986;41.884;23.466;2023-01-25T14:15:09;92439.00;;;5.70
7882;BMP180;3986;41.884;23.466;2023-01-25T14:17:36;92438.00;;;5.40
7882;BMP180;3986;41.884;23.466;2023-01-25T14:20:16;92459.00;;;5.50
7882;BMP180;3986;41.884;23.466;2023-01-25T14:22:47;92450.00;;;5.50
7882;BMP180;3986;41.884;23.466;2023-01-25T14:25:15;92447.00;;;5.40
7882;BMP180;3986;41.884;23.466;2023-01-25T14:27:45;92455.00;;;5.20
7882;BMP180;3986;41.884;23.466;2023-01-25T14:30:22;92297.00;;;5.20
7882;BMP180;3986;41.884;23.466;2023-01-25T14:32:50;92446.00;;;5.40
7882;BMP180;3986;41.884;23.466;2023-01-25T14:35:38;92447.00;;;5.40
7882;BMP180;3986;41.884;23.466;2023-01-25T14:38:21;92447.00;;;4.40
7882;BMP180;3986;41.884;23.466;2023-01-25T14:40:49;92460.00;;;4.90
7882;BMP180;3986;41.884;23.466;2023-01-25T14:43:17;92456.00;;;4.70
7882;BMP180;3986;41.884;23.466;2023-01-25T14:45:46;92464.00;;;4.80
7882;BMP180;3986;41.884;23.466;2023-01-25T14:48:31;92466.00;;;4.90
7882;BMP180;3986;41.884;23.466;2023-01-25T14:51:02;92470.00;;;4.80
7882;BMP180;3986;41.884;23.466;2023-01-25T14:53:29;92454.00;;;4.90
7882;BMP180;3986;41.884;23.466;2023-01-25T14:55:56;92465.00;;;5.00
7882;BMP180;3986;41.884;23.466;2023-01-25T14:58:24;92464.00;;;5.00
7882;BMP180;3986;41.884;23.466;2023-01-25T15:00:56;92459.00;;;5.10
7882;BMP180;3986;41.884;23.466;2023-01-25T15:03:24;92461.00;;;5.00